Time;durP1;ratioP1;P1;durP2;ratioP2;P2;SDS_P1;SDS_P2;PMS_P1;PMS_P2;Temp;Humidity;BMP_temperature;BMP_pressure;BME280_temperature;BME280_humidity;BME280_pressure;Samples;Min_cycle;Max_cycle;Signal;HPM_P1;HPM_P2
2022/05/31 00:00:36;;;;;;;;;51.50;41.00;;;;;-142.59;100.00;56100.38;5034676;28;49731;-78
2022/05/31 00:03:04;;;;;;;;;24.50;17.25;;;;;-142.59;100.00;56100.38;5034938;28;49650;-73
2022/05/31 00:05:30;;;;;;;;;32.25;29.25;;;;;-142.59;100.00;56100.38;5034558;28;49853;-78
2022/05/31 00:07:55;;;;;;;;;30.00;29.25;;;;;-142.59;100.00;56100.38;5033782;28;49709;-77
2022/05/31 00:10:21;;;;;;;;;35.00;30.75;;;;;-142.59;100.00;56100.38;5034580;28;50535;-73
2022/05/31 00:12:47;;;;;;;;;19.75;16.25;;;;;-142.59;100.00;56100.38;5034644;28;49887;-75
2022/05/31 00:15:15;;;;;;;;;11.25;11.25;;;;;-142.59;100.00;56100.38;5034316;28;49771;-77
2022/05/31 00:17:41;;;;;;;;;12.00;12.00;;;;;-142.59;100.00;56100.38;5034709;28;49843;-72
2022/05/31 00:20:09;;;;;;;;;12.00;11.75;;;;;-142.59;100.00;56100.38;5034748;28;49838;-77
2022/05/31 00:22:36;;;;;;;;;11.75;8.50;;;;;-142.59;100.00;56100.38;5034533;28;49892;-76
2022/05/31 00:25:03;;;;;;;;;11.75;10.75;;;;;-142.59;100.00;56100.38;5034308;28;50872;-73
2022/05/31 00:27:28;;;;;;;;;10.00;9.25;;;;;-142.59;100.00;56100.38;5034437;28;49893;-75
2022/05/31 00:29:54;;;;;;;;;9.25;9.25;;;;;-142.59;100.00;56100.38;5034318;28;49820;-73
2022/05/31 00:32:28;;;;;;;;;11.50;9.50;;;;;-142.59;100.00;56100.38;5034701;28;49696;-73
2022/05/31 00:34:56;;;;;;;;;8.50;8.50;;;;;-142.59;100.00;56100.38;5033910;28;49726;-73
2022/05/31 00:37:22;;;;;;;;;8.00;7.25;;;;;-142.59;100.00;56100.38;5034013;28;49895;-76
2022/05/31 00:39:48;;;;;;;;;6.50;5.00;;;;;-142.59;100.00;56100.38;5034333;28;49773;-75
2022/05/31 00:42:17;;;;;;;;;10.00;7.00;;;;;-142.59;100.00;56100.38;5034494;28;49926;-79
2022/05/31 00:44:42;;;;;;;;;7.25;7.25;;;;;-142.59;100.00;56100.38;5033935;28;50633;-75
2022/05/31 00:47:13;;;;;;;;;6.50;6.50;;;;;-142.59;100.00;56100.38;5034158;28;49748;-72
2022/05/31 00:49:46;;;;;;;;;6.75;5.75;;;;;-142.59;100.00;56100.38;5034291;28;49629;-78
2022/05/31 00:52:21;;;;;;;;;4.00;4.00;;;;;-142.59;100.00;56100.38;5034081;28;49792;-77
2022/05/31 00:55:00;;;;;;;;;4.50;4.50;;;;;-142.59;100.00;56100.38;5016279;28;51323;-74
2022/05/31 00:57:27;;;;;;;;;3.75;3.75;;;;;-142.59;100.00;56100.38;5034015;28;49831;-74
2022/05/31 00:59:57;;;;;;;;;4.50;4.00;;;;;-142.59;100.00;56100.38;5034314;28;49901;-79
2022/05/31 01:02:24;;;;;;;;;4.50;4.00;;;;;-142.59;100.00;56100.38;5034090;28;49872;-78
2022/05/31 01:05:00;;;;;;;;;5.00;4.50;;;;;-142.59;100.00;56100.38;5015997;28;52216;-77
2022/05/31 01:07:26;;;;;;;;;4.00;3.25;;;;;-142.59;100.00;56100.38;5033454;28;49632;-72
2022/05/31 01:09:53;;;;;;;;;3.75;3.75;;;;;-142.59;100.00;56100.38;5033885;28;49716;-73
2022/05/31 01:12:21;;;;;;;;;5.00;3.50;;;;;-142.59;100.00;56100.38;5033881;28;49686;-72
2022/05/31 01:14:46;;;;;;;;;4.00;4.00;;;;;-142.59;100.00;56100.38;5033365;28;50548;-77
2022/05/31 01:17:21;;;;;;;;;4.00;4.00;;;;;-142.59;100.00;56100.38;5033629;28;49707;-73
2022/05/31 01:19:58;;;;;;;;;4.50;3.50;;;;;-142.59;100.00;56100.38;5032464;28;49804;-73
2022/05/31 01:22:47;;;;;;;;;5.00;4.00;;;;;-142.59;100.00;56100.38;5033463;28;49871;-73
2022/05/31 01:25:22;;;;;;;;;5.50;4.00;;;;;-142.59;100.00;56100.38;5033142;28;49965;-72
2022/05/31 01:28:08;;;;;;;;;5.00;5.00;;;;;-142.59;100.00;56100.38;5020726;28;49860;-77
2022/05/31 01:30:41;;;;;;;;;3.75;3.00;;;;;-142.59;100.00;56100.38;5029072;28;49960;-74
2022/05/31 01:33:24;;;;;;;;;4.00;4.00;;;;;-142.59;100.00;56100.38;5033691;28;49992;-73
2022/05/31 01:35:49;;;;;;;;;5.00;4.00;;;;;-142.59;100.00;56100.38;5032602;28;50903;-71
2022/05/31 01:38:24;;;;;;;;;5.00;3.75;;;;;-142.59;100.00;56100.38;5033351;28;49567;-72
2022/05/31 01:41:35;;;;;;;;;3.25;3.25;;;;;-142.59;100.00;56100.38;5033347;28;49709;-76
2022/05/31 01:44:05;;;;;;;;;2.00;2.00;;;;;-142.59;100.00;56100.38;5013257;28;49992;-71
2022/05/31 01:46:34;;;;;;;;;2.00;2.00;;;;;-142.59;100.00;56100.38;5031545;28;50110;-73
2022/05/31 01:49:04;;;;;;;;;3.50;3.50;;;;;-142.59;100.00;56100.38;5033148;28;49576;-75
2022/05/31 01:51:29;;;;;;;;;3.50;3.50;;;;;-142.59;100.00;56100.38;5032790;28;49821;-73
2022/05/31 01:53:57;;;;;;;;;2.75;2.75;;;;;-142.59;100.00;56100.38;5033303;28;49631;-72
2022/05/31 01:56:23;;;;;;;;;2.25;2.25;;;;;-142.59;100.00;56100.38;5032973;28;49657;-71
2022/05/31 01:58:50;;;;;;;;;3.75;3.25;;;;;-142.59;100.00;56100.38;5033120;28;50056;-73
2022/05/31 02:01:17;;;;;;;;;3.25;3.25;;;;;-142.59;100.00;56100.38;5032945;28;49629;-75
2022/05/31 02:03:44;;;;;;;;;2.00;1.25;;;;;-142.59;100.00;56100.38;5033266;28;49800;-71
2022/05/31 02:06:32;;;;;;;;;5.25;4.50;;;;;-142.59;100.00;56100.38;5032702;28;51089;-74
2022/05/31 02:08:59;;;;;;;;;4.50;4.50;;;;;-142.59;100.00;56100.38;5032866;28;49843;-75
2022/05/31 02:11:25;;;;;;;;;3.00;3.00;;;;;-142.59;100.00;56100.38;5033211;28;49829;-72
2022/05/31 02:13:51;;;;;;;;;2.75;2.50;;;;;-142.59;100.00;56100.38;5012088;28;49674;-75
2022/05/31 02:16:17;;;;;;;;;2.50;2.50;;;;;-142.59;100.00;56100.38;5013642;28;49626;-74
2022/05/31 02:21:35;;;;;;;;;3.00;3.00;;;;;-142.59;100.00;56100.38;5027724;28;49712;-73
2022/05/31 02:24:02;;;;;;;;;3.00;3.00;;;;;-142.59;100.00;56100.38;5032846;28;50031;-71
2022/05/31 02:26:28;;;;;;;;;2.25;2.25;;;;;-142.59;100.00;56100.38;5032297;28;50725;-74
2022/05/31 02:28:53;;;;;;;;;3.00;3.00;;;;;-142.59;100.00;56100.38;5032491;28;49680;-72
2022/05/31 02:31:18;;;;;;;;;2.00;2.00;;;;;-142.59;100.00;56100.38;5032377;28;49804;-77
2022/05/31 02:33:44;;;;;;;;;2.00;2.00;;;;;-142.59;100.00;56100.38;5032763;28;49859;-76
2022/05/31 02:36:09;;;;;;;;;4.00;2.00;;;;;-142.59;100.00;56100.38;5032288;28;49873;-72
2022/05/31 02:38:34;;;;;;;;;3.50;2.00;;;;;-142.59;100.00;56100.38;5032508;28;49717;-72
2022/05/31 02:41:00;;;;;;;;;3.75;3.75;;;;;-142.59;100.00;56100.38;5032877;28;49634;-77
2022/05/31 02:43:25;;;;;;;;;3.00;3.00;;;;;-142.59;100.00;56100.38;5032853;28;49499;-71
2022/05/31 02:45:50;;;;;;;;;3.50;3.50;;;;;-142.59;100.00;56100.38;5032183;28;50337;-70
2022/05/31 02:48:16;;;;;;;;;4.50;3.00;;;;;-142.59;100.00;56100.38;5032320;28;50178;-72
2022/05/31 02:50:41;;;;;;;;;5.00;3.00;;;;;-142.59;100.00;56100.38;5032004;28;49740;-73
2022/05/31 02:53:07;;;;;;;;;3.75;3.25;;;;;-142.59;100.00;56100.38;5032405;28;49877;-77
2022/05/31 02:55:32;;;;;;;;;3.25;3.00;;;;;-142.59;100.00;56100.38;5031984;28;50475;-74
2022/05/31 02:57:57;;;;;;;;;4.50;4.00;;;;;-142.59;100.00;56100.38;5032311;28;49807;-77
2022/05/31 03:00:23;;;;;;;;;6.00;3.00;;;;;-142.59;100.00;56100.38;5032434;28;49949;-75
2022/05/31 03:02:48;;;;;;;;;4.00;2.50;;;;;-142.59;100.00;56100.38;5032357;28;49915;-72
2022/05/31 03:05:13;;;;;;;;;4.00;4.00;;;;;-142.59;100.00;56100.38;5032042;28;51017;-77
2022/05/31 03:07:39;;;;;;;;;3.00;3.00;;;;;-142.59;100.00;56100.38;5031835;28;49851;-74
2022/05/31 03:10:05;;;;;;;;;3.00;3.00;;;;;-142.59;100.00;56100.38;5032227;28;49638;-73
2022/05/31 03:12:30;;;;;;;;;4.25;4.25;;;;;-142.59;100.00;56100.38;5032445;28;49836;-77
2022/05/31 03:15:03;;;;;;;;;4.00;4.00;;;;;-142.59;100.00;56100.38;5032044;28;50518;-77
2022/05/31 03:17:37;;;;;;;;;5.50;3.00;;;;;-142.59;100.00;56100.38;5032175;28;49668;-72
2022/05/31 03:20:08;;;;;;;;;5.75;5.00;;;;;-142.59;100.00;56100.38;5032230;28;49887;-77
2022/05/31 03:22:41;;;;;;;;;3.00;3.00;;;;;-142.59;100.00;56100.38;5031784;28;49659;-72
2022/05/31 03:25:18;;;;;;;;;4.50;4.50;;;;;-142.59;100.00;56100.38;5014251;28;50506;-74
2022/05/31 03:27:44;;;;;;;;;9.50;5.75;;;;;-142.59;100.00;56100.38;5032027;28;49845;-77
2022/05/31 03:30:10;;;;;;;;;6.25;6.25;;;;;-142.59;100.00;56100.38;5014369;28;49702;-77
2022/05/31 03:32:36;;;;;;;;;5.00;5.00;;;;;-142.59;100.00;56100.38;5031952;28;49634;-73
2022/05/31 03:35:03;;;;;;;;;5.00;4.50;;;;;-142.59;100.00;56100.38;5031355;28;49698;-78
2022/05/31 03:37:29;;;;;;;;;5.00;4.00;;;;;-142.59;100.00;56100.38;5031652;28;49860;-78
2022/05/31 03:39:55;;;;;;;;;3.25;3.25;;;;;-142.59;100.00;56100.38;5031862;28;49741;-77
2022/05/31 03:42:20;;;;;;;;;5.25;4.75;;;;;-142.59;100.00;56100.38;5031874;28;49654;-75
2022/05/31 03:44:45;;;;;;;;;7.75;5.00;;;;;-142.59;100.00;56100.38;5034644;28;49789;-77
2022/05/31 03:47:11;;;;;;;;;5.00;5.00;;;;;-142.59;100.00;56100.38;5035221;28;49724;-74
2022/05/31 03:49:36;;;;;;;;;5.00;5.00;;;;;-142.59;100.00;56100.38;5034778;28;49741;-72
2022/05/31 03:52:01;;;;;;;;;6.75;6.75;;;;;-142.59;100.00;56100.38;5035017;28;49879;-77
2022/05/31 03:54:27;;;;;;;;;4.00;3.00;;;;;-142.59;100.00;56100.38;5034896;28;50600;-76
2022/05/31 03:56:52;;;;;;;;;1.75;0.00;;;;;-142.59;100.00;56100.38;5034925;28;49606;-73
2022/05/31 03:59:18;;;;;;;;;4.75;3.75;;;;;-142.59;100.00;56100.38;5017396;28;49744;-73
2022/05/31 04:01:44;;;;;;;;;6.00;4.25;;;;;-142.59;100.00;56100.38;5035205;28;49606;-73
2022/05/31 04:04:10;;;;;;;;;5.50;5.50;;;;;-142.59;100.00;56100.38;5034601;28;49795;-74
2022/05/31 04:06:36;;;;;;;;;3.25;3.25;;;;;-142.59;100.00;56100.38;5034526;28;49977;-71
2022/05/31 04:09:03;;;;;;;;;5.00;5.00;;;;;-142.59;100.00;56100.38;5034873;28;49954;-72
2022/05/31 04:11:29;;;;;;;;;4.50;4.50;;;;;-142.59;100.00;56100.38;5034879;28;49825;-78
2022/05/31 04:13:54;;;;;;;;;6.25;5.75;;;;;-142.59;100.00;56100.38;5034761;28;50308;-72
2022/05/31 04:16:20;;;;;;;;;7.25;6.00;;;;;-142.59;100.00;56100.38;5034804;28;49689;-74
2022/05/31 04:18:46;;;;;;;;;6.00;4.50;;;;;-142.59;100.00;56100.38;5034960;28;50062;-73
2022/05/31 04:21:16;;;;;;;;;3.50;3.25;;;;;-142.59;100.00;56100.38;5034549;28;49986;-72
2022/05/31 04:23:58;;;;;;;;;3.25;3.25;;;;;-142.59;100.00;56100.38;5034508;28;51021;-72
2022/05/31 04:26:25;;;;;;;;;6.50;4.25;;;;;-142.59;100.00;56100.38;5034586;28;49567;-72
2022/05/31 04:28:50;;;;;;;;;4.50;4.50;;;;;-142.59;100.00;56100.38;5034503;28;49753;-72
2022/05/31 04:31:16;;;;;;;;;3.00;3.00;;;;;-142.59;100.00;56100.38;5034495;28;49721;-74
2022/05/31 04:33:41;;;;;;;;;6.50;6.00;;;;;-142.59;100.00;56100.38;5034160;28;50706;-73
2022/05/31 04:36:11;;;;;;;;;5.50;5.50;;;;;-142.59;100.00;56100.38;5033969;28;49852;-76
2022/05/31 04:38:37;;;;;;;;;7.75;7.75;;;;;-142.59;100.00;56100.38;5034505;28;49835;-74
2022/05/31 04:41:04;;;;;;;;;6.25;4.50;;;;;-142.59;100.00;56100.38;5034807;28;49491;-75
2022/05/31 04:43:29;;;;;;;;;6.25;5.00;;;;;-142.59;100.00;56100.38;5014882;28;50775;-75
2022/05/31 04:45:55;;;;;;;;;8.50;5.00;;;;;-142.59;100.00;56100.38;5015096;28;49528;-76
2022/05/31 04:48:20;;;;;;;;;4.25;4.25;;;;;-142.59;100.00;56100.38;5015212;28;49762;-76
2022/05/31 04:50:46;;;;;;;;;4.00;3.25;;;;;-142.59;100.00;56100.38;5026776;28;49770;-72
2022/05/31 04:53:11;;;;;;;;;5.75;5.50;;;;;-142.59;100.00;56100.38;5033932;28;51080;-74
2022/05/31 04:55:37;;;;;;;;;6.25;5.00;;;;;-142.59;100.00;56100.38;5033884;28;49905;-75
2022/05/31 04:58:02;;;;;;;;;5.50;5.50;;;;;-142.59;100.00;56100.38;5033967;28;49940;-78
2022/05/31 05:00:30;;;;;;;;;6.25;5.25;;;;;-142.59;100.00;56100.38;5034070;28;49590;-78
2022/05/31 05:02:55;;;;;;;;;4.25;4.25;;;;;-142.59;100.00;56100.38;5033689;28;49832;-76
2022/05/31 05:05:20;;;;;;;;;4.75;4.75;;;;;-142.59;100.00;56100.38;5033991;28;50246;-77
2022/05/31 05:07:46;;;;;;;;;8.25;6.00;;;;;-142.59;100.00;56100.38;5033600;28;49816;-73
2022/05/31 05:10:12;;;;;;;;;6.00;6.00;;;;;-142.59;100.00;56100.38;5016442;28;49952;-77
2022/05/31 05:12:37;;;;;;;;;4.25;4.25;;;;;-142.59;100.00;56100.38;5033708;28;49778;-63
2022/05/31 05:15:05;;;;;;;;;5.00;4.75;;;;;-142.59;100.00;56100.38;5033672;28;49723;-73
2022/05/31 05:17:31;;;;;;;;;5.50;4.00;;;;;-142.59;100.00;56100.38;5033717;28;49860;-73
2022/05/31 05:19:56;;;;;;;;;5.00;5.00;;;;;-142.59;100.00;56100.38;5033900;28;49788;-74
2022/05/31 05:22:22;;;;;;;;;7.50;5.50;;;;;-142.59;100.00;56100.38;5033398;28;50362;-72
2022/05/31 05:24:48;;;;;;;;;7.25;5.00;;;;;-142.59;100.00;56100.38;5033607;28;49870;-72
2022/05/31 05:27:13;;;;;;;;;9.00;9.00;;;;;-142.59;100.00;56100.38;5033330;28;50367;-73
2022/05/31 05:32:22;;;;;;;;;5.75;5.25;;;;;-142.59;100.00;56100.38;5033291;28;49861;-71
2022/05/31 05:34:52;;;;;;;;;5.50;5.00;;;;;-142.59;100.00;56100.38;5033429;28;50184;-73
2022/05/31 05:37:18;;;;;;;;;8.75;7.25;;;;;-142.59;100.00;56100.38;5033169;28;49764;-70
2022/05/31 05:39:45;;;;;;;;;8.00;7.00;;;;;-142.59;100.00;56100.38;5033338;28;49915;-69
2022/05/31 05:42:11;;;;;;;;;7.00;5.75;;;;;-142.59;100.00;56100.38;5032780;28;49859;-70
2022/05/31 05:44:36;;;;;;;;;6.00;6.00;;;;;-142.59;100.00;56100.38;5033168;28;49865;-74
2022/05/31 05:47:09;;;;;;;;;8.00;6.00;;;;;-142.59;100.00;56100.38;5033253;28;50641;-73
2022/05/31 05:49:35;;;;;;;;;7.00;7.00;;;;;-142.59;100.00;56100.38;5033494;28;49706;-74
2022/05/31 05:52:04;;;;;;;;;6.25;6.25;;;;;-142.59;100.00;56100.38;5032977;28;49980;-75
2022/05/31 05:54:30;;;;;;;;;5.00;5.00;;;;;-142.59;100.00;56100.38;5032944;28;49737;-78
2022/05/31 05:56:55;;;;;;;;;7.00;6.00;;;;;-142.59;100.00;56100.38;5033372;28;49771;-73
2022/05/31 05:59:21;;;;;;;;;6.75;6.50;;;;;-142.59;100.00;56100.38;5033474;28;49748;-79
2022/05/31 06:01:51;;;;;;;;;6.25;6.00;;;;;-142.59;100.00;56100.38;5032981;28;49792;-76
2022/05/31 06:04:44;;;;;;;;;8.50;5.25;;;;;-142.59;100.00;56100.38;5015151;28;49803;-76
2022/05/31 06:07:35;;;;;;;;;6.25;5.25;;;;;-142.59;100.00;56100.38;5032104;28;49927;-72
2022/05/31 06:10:08;;;;;;;;;6.00;6.00;;;;;-142.59;100.00;56100.38;5032856;28;49721;-75
2022/05/31 06:12:38;;;;;;;;;5.50;5.00;;;;;-142.59;100.00;56100.38;5024697;28;49730;-67
2022/05/31 06:15:28;;;;;;;;;8.50;8.50;;;;;-142.59;100.00;56100.38;4996039;28;49840;-73
2022/05/31 06:17:57;;;;;;;;;4.75;4.75;;;;;-142.59;100.00;56100.38;5013814;28;49856;-74
2022/05/31 06:20:24;;;;;;;;;7.50;7.50;;;;;-142.59;100.00;56100.38;5013951;28;49615;-73
2022/05/31 06:22:50;;;;;;;;;6.00;6.00;;;;;-142.59;100.00;56100.38;4995453;28;51980;-74
2022/05/31 06:25:20;;;;;;;;;8.00;8.00;;;;;-142.59;100.00;56100.38;4995585;28;49927;-74
2022/05/31 06:27:46;;;;;;;;;10.50;8.00;;;;;-142.59;100.00;56100.38;5013710;28;49770;-73
2022/05/31 06:30:11;;;;;;;;;8.25;7.75;;;;;-142.59;100.00;56100.38;5013710;28;49728;-74
2022/05/31 06:32:37;;;;;;;;;10.75;9.00;;;;;-142.59;100.00;56100.38;5013446;28;50449;-74
2022/05/31 06:35:02;;;;;;;;;13.50;11.00;;;;;-142.59;100.00;56100.38;4992267;28;49629;-74
2022/05/31 06:37:30;;;;;;;;;7.75;6.75;;;;;-142.59;100.00;56100.38;4992446;28;49804;-74
2022/05/31 06:39:56;;;;;;;;;8.75;8.75;;;;;-142.59;100.00;56100.38;4993825;28;49836;-74
2022/05/31 06:42:21;;;;;;;;;10.50;7.75;;;;;-142.59;100.00;56100.38;5007951;28;51286;-75
2022/05/31 06:44:46;;;;;;;;;10.00;9.00;;;;;-142.59;100.00;56100.38;4993670;28;49553;-74
2022/05/31 06:47:13;;;;;;;;;8.75;8.75;;;;;-142.59;100.00;56100.38;4993713;28;49745;-73
2022/05/31 06:49:39;;;;;;;;;6.75;6.75;;;;;-142.59;100.00;56100.38;4993696;28;49699;-74
2022/05/31 06:57:39;;;;;;;;;9.25;6.75;;;;;-142.59;100.00;56100.38;5008137;28;49852;-73
2022/05/31 07:00:06;;;;;;;;;9.00;5.50;;;;;-142.59;100.00;56100.38;5012626;28;49952;-74
2022/05/31 07:02:33;;;;;;;;;7.00;7.00;;;;;-142.59;100.00;56100.38;5012227;28;50421;-73
2022/05/31 07:04:58;;;;;;;;;7.25;5.75;;;;;-142.59;100.00;56100.38;5012175;28;49955;-73
2022/05/31 07:07:23;;;;;;;;;8.50;7.75;;;;;-142.59;100.00;56100.38;5012302;28;49804;-73
2022/05/31 07:09:49;;;;;;;;;7.75;7.75;;;;;-142.59;100.00;56100.38;5012087;28;49929;-73
2022/05/31 07:12:14;;;;;;;;;2.75;2.75;;;;;-142.59;100.00;56100.38;5012018;28;50380;-73
2022/05/31 07:14:39;;;;;;;;;10.00;7.00;;;;;-142.59;100.00;56100.38;5012221;28;49868;-73
2022/05/31 07:17:05;;;;;;;;;4.25;4.25;;;;;-142.59;100.00;56100.38;4999901;28;49794;-74
2022/05/31 07:19:31;;;;;;;;;5.00;3.50;;;;;-142.59;100.00;56100.38;4995977;28;50042;-74
2022/05/31 07:22:00;;;;;;;;;4.75;4.25;;;;;-142.59;100.00;56100.38;4996472;28;50879;-73
2022/05/31 07:24:30;;;;;;;;;5.50;4.50;;;;;-142.59;100.00;56100.38;4996217;28;49721;-73
2022/05/31 07:26:55;;;;;;;;;5.75;4.00;;;;;-142.59;100.00;56100.38;4996618;28;49729;-74
2022/05/31 07:29:21;;;;;;;;;6.00;4.75;;;;;-142.59;100.00;56100.38;4996671;28;49888;-73
2022/05/31 07:31:47;;;;;;;;;4.00;4.00;;;;;-142.59;100.00;56100.38;4996354;28;49662;-73
2022/05/31 07:34:16;;;;;;;;;5.00;4.00;;;;;-142.59;100.00;56100.38;5001849;28;49777;-73
2022/05/31 07:36:43;;;;;;;;;5.50;5.50;;;;;-142.59;100.00;56100.38;5016240;28;49828;-74
2022/05/31 07:39:12;;;;;;;;;4.75;4.00;;;;;-142.59;100.00;56100.38;5016238;28;49804;-73
2022/05/31 07:41:37;;;;;;;;;7.25;5.00;;;;;-142.59;100.00;56100.38;5016000;28;50679;-73
2022/05/31 07:44:03;;;;;;;;;6.00;6.00;;;;;-142.59;100.00;56100.38;5016195;28;49735;-73
2022/05/31 07:46:29;;;;;;;;;4.25;3.75;;;;;-142.59;100.00;56100.38;5016199;28;50086;-73
2022/05/31 07:48:58;;;;;;;;;4.50;4.50;;;;;-142.59;100.00;56100.38;5016163;28;49656;-73
2022/05/31 07:51:24;;;;;;;;;6.25;6.25;;;;;-142.59;100.00;56100.38;4997932;28;52148;-73
2022/05/31 07:53:51;;;;;;;;;4.25;4.00;;;;;-142.59;100.00;56100.38;5015696;28;49682;-73
2022/05/31 07:56:17;;;;;;;;;5.75;4.75;;;;;-142.59;100.00;56100.38;5015840;28;49764;-73
2022/05/31 07:58:43;;;;;;;;;6.50;4.75;;;;;-142.59;100.00;56100.38;5016058;28;49692;-74
2022/05/31 08:01:11;;;;;;;;;7.00;6.00;;;;;-142.59;100.00;56100.38;5015479;28;52203;-73
2022/05/31 08:03:40;;;;;;;;;6.00;5.00;;;;;-142.59;100.00;56100.38;5015942;28;49893;-73
2022/05/31 08:06:09;;;;;;;;;4.00;4.00;;;;;-142.59;100.00;56100.38;5015827;28;49829;-73
2022/05/31 08:08:36;;;;;;;;;4.75;4.75;;;;;-142.59;100.00;56100.38;5015719;28;49744;-73
2022/05/31 08:11:06;;;;;;;;;6.00;5.25;;;;;-142.59;100.00;56100.38;5015586;28;51126;-73
2022/05/31 08:13:32;;;;;;;;;5.25;5.25;;;;;-142.59;100.00;56100.38;5015572;28;49774;-72
2022/05/31 08:15:59;;;;;;;;;5.00;4.75;;;;;-142.59;100.00;56100.38;5015739;28;49830;-72
2022/05/31 08:18:24;;;;;;;;;8.00;4.50;;;;;-142.59;100.00;56100.38;5015807;28;49722;-72
2022/05/31 08:20:49;;;;;;;;;4.00;4.00;;;;;-142.59;100.00;56100.38;5015384;28;50715;-73
2022/05/31 08:23:15;;;;;;;;;6.75;4.50;;;;;-142.59;100.00;56100.38;5015388;28;49647;-73
2022/05/31 08:25:40;;;;;;;;;4.00;4.00;;;;;-142.59;100.00;56100.38;5015747;28;50170;-73
2022/05/31 08:28:06;;;;;;;;;4.50;4.50;;;;;-142.59;100.00;56100.38;5015561;28;49634;-73
2022/05/31 08:30:32;;;;;;;;;2.75;2.75;;;;;-142.59;100.00;56100.38;5014683;28;50486;-74
2022/05/31 08:32:58;;;;;;;;;4.00;3.00;;;;;-142.59;100.00;56100.38;5015381;28;49824;-73
2022/05/31 08:35:23;;;;;;;;;2.00;2.00;;;;;-142.59;100.00;56100.38;5015115;28;49842;-73
2022/05/31 08:37:48;;;;;;;;;4.50;3.75;;;;;-142.59;100.00;56100.38;5014960;28;49875;-73
2022/05/31 08:40:14;;;;;;;;;5.75;5.00;;;;;-142.59;100.00;56100.38;5015191;28;49714;-73
2022/05/31 08:43:03;;;;;;;;;6.00;4.00;;;;;-142.59;100.00;56100.38;5015107;28;50066;-74
2022/05/31 08:45:41;;;;;;;;;2.75;2.75;;;;;-142.59;100.00;56100.38;5015286;28;49958;-73
2022/05/31 08:48:31;;;;;;;;;4.75;3.75;;;;;-142.59;100.00;56100.38;5015405;28;49737;-73
2022/05/31 08:56:59;;;;;;;;;3.25;3.25;;;;;-142.59;100.00;56100.38;5034105;28;49762;-73
2022/05/31 08:59:49;;;;;;;;;4.50;3.00;;;;;-142.59;100.00;56100.38;5034178;28;49559;-74
2022/05/31 09:02:25;;;;;;;;;2.00;2.00;;;;;-142.59;100.00;56100.38;5019009;28;49906;-73
2022/05/31 09:05:06;;;;;;;;;2.25;1.00;;;;;-142.59;100.00;56100.38;5033916;28;49662;-73
2022/05/31 09:08:13;;;;;;;;;3.00;2.75;;;;;-142.59;100.00;56100.38;5029257;28;49769;-74
2022/05/31 09:11:03;;;;;;;;;1.50;1.50;;;;;-142.59;100.00;56100.38;5033428;28;50014;-73
2022/05/31 09:13:47;;;;;;;;;4.00;4.00;;;;;-142.59;100.00;56100.38;5033654;28;49792;-73
2022/05/31 09:16:31;;;;;;;;;3.00;2.50;;;;;-142.59;100.00;56100.38;5033677;28;49720;-73
2022/05/31 09:19:05;;;;;;;;;2.25;2.25;;;;;-142.59;100.00;56100.38;5033713;28;49786;-73
2022/05/31 09:21:34;;;;;;;;;3.25;3.25;;;;;-142.59;100.00;56100.38;5033753;28;49751;-72
2022/05/31 09:24:02;;;;;;;;;2.00;2.00;;;;;-142.59;100.00;56100.38;5033302;28;50665;-73
2022/05/31 09:26:55;;;;;;;;;3.00;3.00;;;;;-142.59;100.00;56100.38;5033344;28;49762;-73
2022/05/31 09:29:25;;;;;;;;;3.00;3.00;;;;;-142.59;100.00;56100.38;5033565;28;49796;-73
2022/05/31 09:32:25;;;;;;;;;2.25;2.25;;;;;-142.59;100.00;56100.38;5033392;28;49759;-73
2022/05/31 09:35:22;;;;;;;;;5.00;1.75;;;;;-142.59;100.00;56100.38;5032770;28;50690;-73
2022/05/31 09:38:07;;;;;;;;;3.50;3.50;;;;;-142.59;100.00;56100.38;5033103;28;49606;-69
2022/05/31 09:41:07;;;;;;;;;2.00;2.00;;;;;-142.59;100.00;56100.38;5032613;28;49648;-72
2022/05/31 09:43:50;;;;;;;;;3.00;2.00;;;;;-142.59;100.00;56100.38;4990704;28;50012;-72
2022/05/31 09:46:20;;;;;;;;;2.75;2.75;;;;;-142.59;100.00;56100.38;5033202;28;50735;-71
2022/05/31 09:48:50;;;;;;;;;2.00;2.00;;;;;-142.59;100.00;56100.38;5033304;28;49733;-72
2022/05/31 09:51:24;;;;;;;;;1.75;1.75;;;;;-142.59;100.00;56100.38;5033319;28;49920;-72
2022/05/31 09:59:25;;;;;;;;;5.00;3.50;;;;;-142.59;100.00;56100.38;5032857;28;49930;-72
2022/05/31 10:01:51;;;;;;;;;2.00;2.00;;;;;-142.59;100.00;56100.38;5032927;28;49736;-73
2022/05/31 10:04:34;;;;;;;;;1.75;1.75;;;;;-142.59;100.00;56100.38;5031781;28;49836;-73
2022/05/31 10:07:07;;;;;;;;;1.75;1.75;;;;;-142.59;100.00;56100.38;5015325;28;51393;-74
2022/05/31 10:09:43;;;;;;;;;3.00;2.00;;;;;-142.59;100.00;56100.38;5032345;28;49835;-76
2022/05/31 10:12:31;;;;;;;;;3.00;2.00;;;;;-142.59;100.00;56100.38;5032764;28;49733;-74
2022/05/31 10:14:57;;;;;;;;;2.50;2.50;;;;;-142.59;100.00;56100.38;5033170;28;49563;-74
2022/05/31 10:17:35;;;;;;;;;2.00;2.00;;;;;-142.59;100.00;56100.38;5031403;28;51903;-76
2022/05/31 10:20:12;;;;;;;;;3.75;3.75;;;;;-142.59;100.00;56100.38;5032815;28;49789;-77
2022/05/31 10:22:49;;;;;;;;;1.50;1.50;;;;;-142.59;100.00;56100.38;5032555;28;49856;-76
2022/05/31 10:25:23;;;;;;;;;2.00;2.00;;;;;-142.59;100.00;56100.38;5033107;28;49886;-77
2022/05/31 10:27:55;;;;;;;;;3.50;3.50;;;;;-142.59;100.00;56100.38;5032793;28;50930;-77
2022/05/31 10:30:22;;;;;;;;;3.50;2.75;;;;;-142.59;100.00;56100.38;5032585;28;49831;-77
2022/05/31 10:32:53;;;;;;;;;3.50;2.00;;;;;-142.59;100.00;56100.38;5032647;28;50009;-77
2022/05/31 10:35:21;;;;;;;;;3.00;2.00;;;;;-142.59;100.00;56100.38;5032497;28;49935;-76
2022/05/31 10:37:59;;;;;;;;;2.00;2.00;;;;;-142.59;100.00;56100.38;5032286;28;50600;-75
2022/05/31 10:40:29;;;;;;;;;1.00;1.00;;;;;-142.59;100.00;56100.38;5032563;28;49661;-76
2022/05/31 10:43:01;;;;;;;;;2.00;2.00;;;;;-142.59;100.00;56100.38;5032513;28;49840;-74
2022/05/31 10:45:31;;;;;;;;;2.00;2.00;;;;;-142.59;100.00;56100.38;5032430;28;49887;-74
2022/05/31 10:47:59;;;;;;;;;3.25;3.25;;;;;-142.59;100.00;56100.38;5032334;28;49648;-73
2022/05/31 10:50:34;;;;;;;;;3.00;3.00;;;;;-142.59;100.00;56100.38;5032189;28;49639;-73
2022/05/31 10:53:22;;;;;;;;;4.75;4.75;;;;;-142.59;100.00;56100.38;5034249;28;49650;-72
2022/05/31 10:56:03;;;;;;;;;2.00;2.00;;;;;-142.59;100.00;56100.38;5036023;28;49935;-77
2022/05/31 10:58:46;;;;;;;;;2.00;2.00;;;;;-142.59;100.00;56100.38;5035667;28;49919;-75
2022/05/31 11:01:22;;;;;;;;;1.00;1.00;;;;;-142.59;100.00;56100.38;5035811;28;49776;-74
2022/05/31 11:04:28;;;;;;;;;2.00;2.00;;;;;-142.59;100.00;56100.38;5035742;28;49850;-73
2022/05/31 11:07:03;;;;;;;;;5.00;5.00;;;;;-142.59;100.00;56100.38;5035882;28;49811;-77
2022/05/31 11:13:10;;;;;;;;;2.25;2.25;;;;;-142.59;100.00;56100.38;5035275;28;49535;-73
2022/05/31 11:15:52;;;;;;;;;3.75;1.75;;;;;-142.59;100.00;56100.38;5035597;28;49709;-75
2022/05/31 11:18:34;;;;;;;;;3.25;3.25;;;;;-142.59;100.00;56100.38;5035893;28;49842;-76
2022/05/31 11:21:35;;;;;;;;;1.50;1.00;;;;;-142.59;100.00;56100.38;5035298;28;50611;-73
2022/05/31 11:24:24;;;;;;;;;3.00;2.00;;;;;-142.59;100.00;56100.38;5016188;28;49666;-76
2022/05/31 11:26:55;;;;;;;;;3.00;2.50;;;;;-142.59;100.00;56100.38;5016443;28;49745;-77
2022/05/31 11:30:01;;;;;;;;;2.50;2.50;;;;;-142.59;100.00;56100.38;5016572;28;49675;-78
2022/05/31 11:32:29;;;;;;;;;2.50;2.50;;;;;-142.59;100.00;56100.38;5016677;28;50804;-75
2022/05/31 11:35:30;;;;;;;;;2.25;2.25;;;;;-142.59;100.00;56100.38;5017735;28;49865;-75
2022/05/31 11:38:22;;;;;;;;;2.50;2.00;;;;;-142.59;100.00;56100.38;5016085;28;49873;-73
2022/05/31 11:40:53;;;;;;;;;1.75;1.00;;;;;-142.59;100.00;56100.38;5016391;28;49928;-72
2022/05/31 11:43:46;;;;;;;;;1.00;1.00;;;;;-142.59;100.00;56100.38;5015980;28;51016;-75
2022/05/31 11:46:29;;;;;;;;;2.00;1.00;;;;;-142.59;100.00;56100.38;5031564;28;49681;-68
2022/05/31 11:49:01;;;;;;;;;1.00;1.00;;;;;-142.59;100.00;56100.38;5035236;28;49817;-67
2022/05/31 11:51:27;;;;;;;;;1.00;1.00;;;;;-142.59;100.00;56100.38;5035113;28;49751;-68